Weather at Vulcan (Hospital) Heliport

Public forecast

Using degrees Celsius for public forecast. Weather courtesy of forecast.io.

Closest aviation weather report (METAR) to Vulcan (Hospital) Heliport

Closest report is Lethbridge County Airport, 49.3 nm (91.2 km) SSE.

2024/05/19 22:00 (retrieved 1 hour ago)

CYQL 192200Z 32014KT 25SM -SHRA SCT029 BKN040 OVC060 06/03 A3000 RMK CU3SC4SC1 SLP185

Closest aviation forecast (TAF) to Vulcan (Hospital) Heliport

Closest forecast is Lethbridge County Airport, 49.3 nm (91.2 km) SSE.

2024/05/19 21:36 Ammendment (retrieved 1 hour ago)

TAF AMD TAF AMD CYQL 192132Z 1921/2006 24008KT P6SM BKN060 TEMPO 1921/2003 VRB15G25KT P6SM -SHRA VCTS BKN050CB FM200300 35010KT P6SM -SHRA FEW020 BKN050 RMK NXT FCST BY 200000Z